sensor_id;sensor_type;location;lat;lon;timestamp;P1;durP1;ratioP1;P2;durP2;ratioP2
16025;SDS011;8117;52.488;13.460;2022-11-15T00:01:14;7.23;;;4.80;;
16025;SDS011;8117;52.488;13.460;2022-11-15T00:03:42;10.27;;;5.63;;
16025;SDS011;8117;52.488;13.460;2022-11-15T00:06:09;11.00;;;5.97;;
16025;SDS011;8117;52.488;13.460;2022-11-15T00:08:35;7.17;;;4.83;;
16025;SDS011;8117;52.488;13.460;2022-11-15T00:11:02;11.77;;;6.57;;
16025;SDS011;8117;52.488;13.460;2022-11-15T00:13:29;7.93;;;4.50;;
16025;SDS011;8117;52.488;13.460;2022-11-15T00:15:56;11.20;;;6.00;;
16025;SDS011;8117;52.488;13.460;2022-11-15T00:18:25;11.47;;;5.13;;
16025;SDS011;8117;52.488;13.460;2022-11-15T00:20:52;7.10;;;4.83;;
16025;SDS011;8117;52.488;13.460;2022-11-15T00:23:18;8.53;;;4.87;;
16025;SDS011;8117;52.488;13.460;2022-11-15T00:25:45;8.63;;;5.53;;
16025;SDS011;8117;52.488;13.460;2022-11-15T00:28:13;6.90;;;4.40;;
16025;SDS011;8117;52.488;13.460;2022-11-15T00:30:40;7.63;;;6.10;;
16025;SDS011;8117;52.488;13.460;2022-11-15T00:33:06;12.90;;;4.97;;
16025;SDS011;8117;52.488;13.460;2022-11-15T00:35:36;8.10;;;5.10;;
16025;SDS011;8117;52.488;13.460;2022-11-15T00:38:02;10.40;;;5.93;;
16025;SDS011;8117;52.488;13.460;2022-11-15T00:40:29;12.27;;;5.53;;
16025;SDS011;8117;52.488;13.460;2022-11-15T00:42:56;8.77;;;5.93;;
16025;SDS011;8117;52.488;13.460;2022-11-15T00:45:23;7.97;;;5.13;;
16025;SDS011;8117;52.488;13.460;2022-11-15T00:47:50;7.40;;;3.90;;
16025;SDS011;8117;52.488;13.460;2022-11-15T00:50:17;11.37;;;5.57;;
16025;SDS011;8117;52.488;13.460;2022-11-15T00:52:45;7.73;;;4.17;;
16025;SDS011;8117;52.488;13.460;2022-11-15T00:55:13;8.50;;;5.20;;
16025;SDS011;8117;52.488;13.460;2022-11-15T00:57:40;9.50;;;5.27;;
16025;SDS011;8117;52.488;13.460;2022-11-15T01:00:07;10.40;;;5.00;;
16025;SDS011;8117;52.488;13.460;2022-11-15T01:02:35;7.67;;;5.07;;
16025;SDS011;8117;52.488;13.460;2022-11-15T01:05:01;11.57;;;4.17;;
16025;SDS011;8117;52.488;13.460;2022-11-15T01:07:28;8.87;;;5.30;;
16025;SDS011;8117;52.488;13.460;2022-11-15T01:09:56;10.17;;;4.80;;
16025;SDS011;8117;52.488;13.460;2022-11-15T01:12:23;7.03;;;4.83;;
16025;SDS011;8117;52.488;13.460;2022-11-15T01:14:49;11.50;;;5.30;;
16025;SDS011;8117;52.488;13.460;2022-11-15T01:17:16;9.43;;;6.23;;
16025;SDS011;8117;52.488;13.460;2022-11-15T01:19:43;11.23;;;5.20;;
16025;SDS011;8117;52.488;13.460;2022-11-15T01:22:09;4.33;;;3.77;;
16025;SDS011;8117;52.488;13.460;2022-11-15T01:24:36;8.10;;;5.33;;
16025;SDS011;8117;52.488;13.460;2022-11-15T01:27:04;6.13;;;3.83;;
16025;SDS011;8117;52.488;13.460;2022-11-15T01:29:31;11.27;;;5.03;;
16025;SDS011;8117;52.488;13.460;2022-11-15T01:31:57;7.80;;;4.53;;
16025;SDS011;8117;52.488;13.460;2022-11-15T01:34:24;11.67;;;5.20;;
16025;SDS011;8117;52.488;13.460;2022-11-15T01:36:51;10.80;;;4.43;;
16025;SDS011;8117;52.488;13.460;2022-11-15T01:39:17;10.67;;;5.53;;
16025;SDS011;8117;52.488;13.460;2022-11-15T01:41:44;10.23;;;5.80;;
16025;SDS011;8117;52.488;13.460;2022-11-15T01:44:37;11.10;;;6.57;;
16025;SDS011;8117;52.488;13.460;2022-11-15T01:47:06;9.60;;;5.23;;
16025;SDS011;8117;52.488;13.460;2022-11-15T01:49:36;8.90;;;4.50;;
16025;SDS011;8117;52.488;13.460;2022-11-15T01:52:05;9.17;;;4.70;;
16025;SDS011;8117;52.488;13.460;2022-11-15T01:54:35;7.90;;;4.53;;
16025;SDS011;8117;52.488;13.460;2022-11-15T01:57:02;9.43;;;4.53;;
16025;SDS011;8117;52.488;13.460;2022-11-15T01:59:32;10.07;;;5.43;;
16025;SDS011;8117;52.488;13.460;2022-11-15T02:01:59;11.03;;;5.90;;
16025;SDS011;8117;52.488;13.460;2022-11-15T02:04:26;8.90;;;3.97;;
16025;SDS011;8117;52.488;13.460;2022-11-15T02:06:55;10.40;;;4.23;;
16025;SDS011;8117;52.488;13.460;2022-11-15T02:09:21;10.93;;;3.93;;
16025;SDS011;8117;52.488;13.460;2022-11-15T02:11:48;13.17;;;5.63;;
16025;SDS011;8117;52.488;13.460;2022-11-15T02:14:17;10.40;;;4.23;;
16025;SDS011;8117;52.488;13.460;2022-11-15T02:16:48;9.27;;;4.23;;
16025;SDS011;8117;52.488;13.460;2022-11-15T02:19:23;17.03;;;7.27;;
16025;SDS011;8117;52.488;13.460;2022-11-15T02:22:04;8.70;;;4.70;;
16025;SDS011;8117;52.488;13.460;2022-11-15T02:24:54;7.60;;;4.77;;
16025;SDS011;8117;52.488;13.460;2022-11-15T02:27:33;8.00;;;5.13;;
16025;SDS011;8117;52.488;13.460;2022-11-15T02:30:20;11.50;;;6.00;;
16025;SDS011;8117;52.488;13.460;2022-11-15T02:32:49;10.87;;;5.57;;
16025;SDS011;8117;52.488;13.460;2022-11-15T02:35:20;12.43;;;6.07;;
16025;SDS011;8117;52.488;13.460;2022-11-15T02:37:51;8.23;;;5.17;;
16025;SDS011;8117;52.488;13.460;2022-11-15T02:40:22;14.97;;;5.97;;
16025;SDS011;8117;52.488;13.460;2022-11-15T02:42:53;10.93;;;6.17;;
16025;SDS011;8117;52.488;13.460;2022-11-15T02:45:41;9.50;;;5.43;;
16025;SDS011;8117;52.488;13.460;2022-11-15T02:48:12;7.30;;;5.20;;
16025;SDS011;8117;52.488;13.460;2022-11-15T02:50:39;8.10;;;4.90;;
16025;SDS011;8117;52.488;13.460;2022-11-15T02:53:07;9.53;;;5.63;;
16025;SDS011;8117;52.488;13.460;2022-11-15T02:55:36;7.57;;;4.00;;
16025;SDS011;8117;52.488;13.460;2022-11-15T02:58:08;11.30;;;6.63;;
16025;SDS011;8117;52.488;13.460;2022-11-15T03:00:49;10.80;;;5.87;;
16025;SDS011;8117;52.488;13.460;2022-11-15T03:03:30;8.07;;;4.73;;
16025;SDS011;8117;52.488;13.460;2022-11-15T03:06:09;8.90;;;5.73;;
16025;SDS011;8117;52.488;13.460;2022-11-15T03:08:54;4.97;;;3.80;;
16025;SDS011;8117;52.488;13.460;2022-11-15T03:11:37;10.37;;;5.93;;
16025;SDS011;8117;52.488;13.460;2022-11-15T03:14:19;6.30;;;5.03;;
16025;SDS011;8117;52.488;13.460;2022-11-15T03:16:51;9.00;;;5.20;;
16025;SDS011;8117;52.488;13.460;2022-11-15T03:19:32;12.07;;;5.37;;
16025;SDS011;8117;52.488;13.460;2022-11-15T03:22:02;9.30;;;4.73;;
16025;SDS011;8117;52.488;13.460;2022-11-15T03:24:31;10.53;;;4.87;;
16025;SDS011;8117;52.488;13.460;2022-11-15T03:27:02;8.37;;;4.40;;
16025;SDS011;8117;52.488;13.460;2022-11-15T03:29:35;8.87;;;5.73;;
16025;SDS011;8117;52.488;13.460;2022-11-15T03:32:07;9.50;;;5.63;;
16025;SDS011;8117;52.488;13.460;2022-11-15T03:34:37;6.07;;;3.97;;
16025;SDS011;8117;52.488;13.460;2022-11-15T03:37:12;8.30;;;4.33;;
16025;SDS011;8117;52.488;13.460;2022-11-15T03:39:47;8.10;;;5.60;;
16025;SDS011;8117;52.488;13.460;2022-11-15T03:42:17;6.53;;;4.33;;
16025;SDS011;8117;52.488;13.460;2022-11-15T03:44:49;11.50;;;5.03;;
16025;SDS011;8117;52.488;13.460;2022-11-15T03:47:21;5.53;;;4.80;;
16025;SDS011;8117;52.488;13.460;2022-11-15T03:49:51;8.47;;;5.00;;
16025;SDS011;8117;52.488;13.460;2022-11-15T03:52:30;6.67;;;4.27;;
16025;SDS011;8117;52.488;13.460;2022-11-15T03:55:02;9.10;;;4.20;;
16025;SDS011;8117;52.488;13.460;2022-11-15T03:57:30;8.93;;;5.43;;
16025;SDS011;8117;52.488;13.460;2022-11-15T03:59:57;7.10;;;5.67;;
16025;SDS011;8117;52.488;13.460;2022-11-15T04:02:25;12.17;;;6.23;;
16025;SDS011;8117;52.488;13.460;2022-11-15T04:04:54;9.50;;;4.37;;
16025;SDS011;8117;52.488;13.460;2022-11-15T04:07:21;9.73;;;4.17;;
16025;SDS011;8117;52.488;13.460;2022-11-15T04:09:50;11.67;;;4.73;;
16025;SDS011;8117;52.488;13.460;2022-11-15T04:12:29;9.57;;;4.37;;
16025;SDS011;8117;52.488;13.460;2022-11-15T04:14:59;10.07;;;5.00;;
16025;SDS011;8117;52.488;13.460;2022-11-15T04:17:37;8.93;;;5.00;;
16025;SDS011;8117;52.488;13.460;2022-11-15T04:20:06;7.43;;;5.80;;
16025;SDS011;8117;52.488;13.460;2022-11-15T04:22:59;5.53;;;3.73;;
16025;SDS011;8117;52.488;13.460;2022-11-15T04:25:44;7.40;;;4.73;;
16025;SDS011;8117;52.488;13.460;2022-11-15T04:28:11;9.33;;;4.87;;
16025;SDS011;8117;52.488;13.460;2022-11-15T04:30:38;7.93;;;4.40;;
16025;SDS011;8117;52.488;13.460;2022-11-15T04:33:09;8.13;;;4.27;;
16025;SDS011;8117;52.488;13.460;2022-11-15T04:35:36;7.60;;;4.60;;
16025;SDS011;8117;52.488;13.460;2022-11-15T04:38:05;9.27;;;4.00;;
16025;SDS011;8117;52.488;13.460;2022-11-15T04:40:33;6.30;;;3.97;;
16025;SDS011;8117;52.488;13.460;2022-11-15T04:43:00;11.40;;;6.10;;
16025;SDS011;8117;52.488;13.460;2022-11-15T04:45:28;9.50;;;4.77;;
16025;SDS011;8117;52.488;13.460;2022-11-15T04:47:55;7.77;;;4.27;;
16025;SDS011;8117;52.488;13.460;2022-11-15T04:50:25;6.80;;;4.33;;
16025;SDS011;8117;52.488;13.460;2022-11-15T04:52:56;9.60;;;4.67;;
16025;SDS011;8117;52.488;13.460;2022-11-15T04:55:25;11.43;;;5.03;;
16025;SDS011;8117;52.488;13.460;2022-11-15T04:57:58;8.03;;;4.10;;
16025;SDS011;8117;52.488;13.460;2022-11-15T05:00:26;9.23;;;5.37;;
16025;SDS011;8117;52.488;13.460;2022-11-15T05:02:55;11.63;;;6.83;;
16025;SDS011;8117;52.488;13.460;2022-11-15T05:05:41;10.57;;;4.23;;
16025;SDS011;8117;52.488;13.460;2022-11-15T05:08:09;10.70;;;4.87;;
16025;SDS011;8117;52.488;13.460;2022-11-15T05:10:36;10.93;;;5.83;;
16025;SDS011;8117;52.488;13.460;2022-11-15T05:13:11;8.93;;;5.07;;
16025;SDS011;8117;52.488;13.460;2022-11-15T05:15:37;15.43;;;5.37;;
16025;SDS011;8117;52.488;13.460;2022-11-15T05:18:07;16.87;;;6.67;;
16025;SDS011;8117;52.488;13.460;2022-11-15T05:20:34;11.80;;;4.83;;
16025;SDS011;8117;52.488;13.460;2022-11-15T05:23:02;8.33;;;3.57;;
16025;SDS011;8117;52.488;13.460;2022-11-15T05:25:29;7.67;;;4.30;;
16025;SDS011;8117;52.488;13.460;2022-11-15T05:27:56;7.57;;;5.47;;
16025;SDS011;8117;52.488;13.460;2022-11-15T05:30:23;7.30;;;4.53;;
16025;SDS011;8117;52.488;13.460;2022-11-15T05:32:50;9.87;;;5.60;;
16025;SDS011;8117;52.488;13.460;2022-11-15T05:35:18;12.27;;;5.63;;
16025;SDS011;8117;52.488;13.460;2022-11-15T05:37:48;8.20;;;5.80;;
16025;SDS011;8117;52.488;13.460;2022-11-15T05:40:17;9.10;;;6.07;;
16025;SDS011;8117;52.488;13.460;2022-11-15T05:42:44;8.37;;;5.43;;
16025;SDS011;8117;52.488;13.460;2022-11-15T05:45:13;10.47;;;4.43;;
16025;SDS011;8117;52.488;13.460;2022-11-15T05:47:40;12.90;;;5.03;;
16025;SDS011;8117;52.488;13.460;2022-11-15T05:50:10;12.53;;;6.30;;
16025;SDS011;8117;52.488;13.460;2022-11-15T05:55:13;5.60;;;3.63;;
16025;SDS011;8117;52.488;13.460;2022-11-15T06:00:43;8.20;;;5.73;;
16025;SDS011;8117;52.488;13.460;2022-11-15T06:03:10;8.53;;;4.93;;
16025;SDS011;8117;52.488;13.460;2022-11-15T06:05:39;13.47;;;5.93;;
16025;SDS011;8117;52.488;13.460;2022-11-15T06:08:06;9.43;;;4.67;;
16025;SDS011;8117;52.488;13.460;2022-11-15T06:11:05;6.37;;;3.93;;
16025;SDS011;8117;52.488;13.460;2022-11-15T06:13:38;9.10;;;5.63;;
16025;SDS011;8117;52.488;13.460;2022-11-15T06:16:07;7.70;;;5.20;;
16025;SDS011;8117;52.488;13.460;2022-11-15T06:18:34;8.30;;;5.57;;
16025;SDS011;8117;52.488;13.460;2022-11-15T06:21:02;7.63;;;4.53;;
16025;SDS011;8117;52.488;13.460;2022-11-15T06:23:30;7.23;;;4.00;;
16025;SDS011;8117;52.488;13.460;2022-11-15T06:25:58;7.60;;;5.43;;
16025;SDS011;8117;52.488;13.460;2022-11-15T06:28:24;9.27;;;5.07;;
16025;SDS011;8117;52.488;13.460;2022-11-15T06:30:56;7.57;;;5.13;;
16025;SDS011;8117;52.488;13.460;2022-11-15T06:33:28;6.33;;;5.40;;
16025;SDS011;8117;52.488;13.460;2022-11-15T06:35:54;9.07;;;4.17;;
16025;SDS011;8117;52.488;13.460;2022-11-15T06:38:21;7.30;;;5.17;;
16025;SDS011;8117;52.488;13.460;2022-11-15T06:40:48;12.00;;;5.27;;
16025;SDS011;8117;52.488;13.460;2022-11-15T06:43:14;6.73;;;4.93;;
16025;SDS011;8117;52.488;13.460;2022-11-15T06:45:41;7.17;;;4.83;;
16025;SDS011;8117;52.488;13.460;2022-11-15T06:48:09;7.63;;;4.80;;
16025;SDS011;8117;52.488;13.460;2022-11-15T06:50:36;5.63;;;4.07;;
16025;SDS011;8117;52.488;13.460;2022-11-15T06:53:02;13.83;;;5.70;;
16025;SDS011;8117;52.488;13.460;2022-11-15T06:55:30;9.23;;;4.77;;
16025;SDS011;8117;52.488;13.460;2022-11-15T06:57:56;12.33;;;6.73;;
16025;SDS011;8117;52.488;13.460;2022-11-15T07:00:23;12.40;;;5.27;;
16025;SDS011;8117;52.488;13.460;2022-11-15T07:02:50;6.63;;;4.30;;
16025;SDS011;8117;52.488;13.460;2022-11-15T07:05:18;12.17;;;5.57;;
16025;SDS011;8117;52.488;13.460;2022-11-15T07:07:52;5.67;;;5.03;;
16025;SDS011;8117;52.488;13.460;2022-11-15T07:10:19;10.20;;;5.47;;
16025;SDS011;8117;52.488;13.460;2022-11-15T07:12:46;10.07;;;5.83;;
16025;SDS011;8117;52.488;13.460;2022-11-15T07:15:13;9.03;;;5.33;;
16025;SDS011;8117;52.488;13.460;2022-11-15T07:17:40;10.10;;;4.93;;
16025;SDS011;8117;52.488;13.460;2022-11-15T07:20:08;9.17;;;6.17;;
16025;SDS011;8117;52.488;13.460;2022-11-15T07:22:47;12.60;;;6.43;;
16025;SDS011;8117;52.488;13.460;2022-11-15T07:26:38;14.80;;;5.30;;
16025;SDS011;8117;52.488;13.460;2022-11-15T07:28:16;13.97;;;5.27;;
16025;SDS011;8117;52.488;13.460;2022-11-15T07:31:21;10.60;;;4.83;;
16025;SDS011;8117;52.488;13.460;2022-11-15T07:33:52;9.83;;;5.17;;
16025;SDS011;8117;52.488;13.460;2022-11-15T07:36:44;7.87;;;5.03;;
16025;SDS011;8117;52.488;13.460;2022-11-15T07:40:17;8.33;;;4.83;;
16025;SDS011;8117;52.488;13.460;2022-11-15T07:43:13;10.23;;;4.77;;
16025;SDS011;8117;52.488;13.460;2022-11-15T07:45:56;9.80;;;6.13;;
16025;SDS011;8117;52.488;13.460;2022-11-15T07:48:27;12.50;;;6.13;;
16025;SDS011;8117;52.488;13.460;2022-11-15T07:51:20;7.50;;;4.50;;
16025;SDS011;8117;52.488;13.460;2022-11-15T07:53:54;10.80;;;6.30;;
16025;SDS011;8117;52.488;13.460;2022-11-15T07:56:36;6.03;;;4.73;;
16025;SDS011;8117;52.488;13.460;2022-11-15T07:59:13;9.53;;;5.33;;
16025;SDS011;8117;52.488;13.460;2022-11-15T08:01:46;15.07;;;6.37;;
16025;SDS011;8117;52.488;13.460;2022-11-15T08:04:31;8.33;;;4.03;;
16025;SDS011;8117;52.488;13.460;2022-11-15T08:07:05;10.60;;;6.17;;
16025;SDS011;8117;52.488;13.460;2022-11-15T08:09:38;9.47;;;4.90;;
16025;SDS011;8117;52.488;13.460;2022-11-15T08:12:19;10.13;;;5.23;;
16025;SDS011;8117;52.488;13.460;2022-11-15T08:15:16;11.13;;;5.33;;
16025;SDS011;8117;52.488;13.460;2022-11-15T08:22:08;8.47;;;5.67;;
16025;SDS011;8117;52.488;13.460;2022-11-15T08:25:10;11.43;;;5.43;;
16025;SDS011;8117;52.488;13.460;2022-11-15T08:27:37;15.90;;;6.80;;
16025;SDS011;8117;52.488;13.460;2022-11-15T08:30:03;8.27;;;5.30;;
16025;SDS011;8117;52.488;13.460;2022-11-15T08:32:31;11.03;;;6.27;;
16025;SDS011;8117;52.488;13.460;2022-11-15T08:34:58;11.83;;;4.27;;
16025;SDS011;8117;52.488;13.460;2022-11-15T08:37:30;12.93;;;5.10;;
16025;SDS011;8117;52.488;13.460;2022-11-15T08:39:56;11.27;;;5.60;;
16025;SDS011;8117;52.488;13.460;2022-11-15T08:42:23;9.63;;;5.50;;
16025;SDS011;8117;52.488;13.460;2022-11-15T08:44:50;13.50;;;6.70;;
16025;SDS011;8117;52.488;13.460;2022-11-15T08:47:16;15.20;;;6.40;;
16025;SDS011;8117;52.488;13.460;2022-11-15T08:49:43;18.77;;;7.17;;
16025;SDS011;8117;52.488;13.460;2022-11-15T08:52:10;12.00;;;6.27;;
16025;SDS011;8117;52.488;13.460;2022-11-15T08:54:38;9.13;;;4.53;;
16025;SDS011;8117;52.488;13.460;2022-11-15T08:57:06;8.73;;;5.77;;
16025;SDS011;8117;52.488;13.460;2022-11-15T08:59:34;11.60;;;5.87;;
16025;SDS011;8117;52.488;13.460;2022-11-15T09:02:01;8.03;;;5.60;;
16025;SDS011;8117;52.488;13.460;2022-11-15T09:04:31;13.77;;;6.53;;
16025;SDS011;8117;52.488;13.460;2022-11-15T09:06:57;12.17;;;7.27;;
16025;SDS011;8117;52.488;13.460;2022-11-15T09:09:24;11.73;;;6.17;;
16025;SDS011;8117;52.488;13.460;2022-11-15T09:11:52;12.30;;;6.47;;
16025;SDS011;8117;52.488;13.460;2022-11-15T09:14:19;7.87;;;4.50;;
16025;SDS011;8117;52.488;13.460;2022-11-15T09:16:46;9.47;;;6.13;;
16025;SDS011;8117;52.488;13.460;2022-11-15T09:19:13;9.73;;;4.73;;
16025;SDS011;8117;52.488;13.460;2022-11-15T09:21:40;8.40;;;4.13;;
16025;SDS011;8117;52.488;13.460;2022-11-15T09:24:08;15.07;;;7.63;;
16025;SDS011;8117;52.488;13.460;2022-11-15T09:26:35;15.07;;;6.97;;
16025;SDS011;8117;52.488;13.460;2022-11-15T09:29:03;11.87;;;5.83;;
16025;SDS011;8117;52.488;13.460;2022-11-15T09:31:30;12.57;;;6.60;;
16025;SDS011;8117;52.488;13.460;2022-11-15T09:33:57;13.53;;;6.10;;
16025;SDS011;8117;52.488;13.460;2022-11-15T09:36:24;8.37;;;5.40;;
16025;SDS011;8117;52.488;13.460;2022-11-15T09:38:51;9.07;;;4.90;;
16025;SDS011;8117;52.488;13.460;2022-11-15T09:41:22;9.57;;;4.53;;
16025;SDS011;8117;52.488;13.460;2022-11-15T09:43:58;13.60;;;5.57;;
16025;SDS011;8117;52.488;13.460;2022-11-15T09:46:37;12.17;;;5.60;;
16025;SDS011;8117;52.488;13.460;2022-11-15T09:49:10;11.67;;;7.23;;
16025;SDS011;8117;52.488;13.460;2022-11-15T09:51:41;12.20;;;7.50;;
16025;SDS011;8117;52.488;13.460;2022-11-15T09:54:16;9.87;;;5.43;;
16025;SDS011;8117;52.488;13.460;2022-11-15T09:56:47;9.87;;;4.93;;
16025;SDS011;8117;52.488;13.460;2022-11-15T09:59:27;11.20;;;6.07;;
16025;SDS011;8117;52.488;13.460;2022-11-15T10:02:03;13.17;;;6.37;;
16025;SDS011;8117;52.488;13.460;2022-11-15T10:04:36;9.30;;;4.40;;
16025;SDS011;8117;52.488;13.460;2022-11-15T10:07:05;8.10;;;4.20;;
16025;SDS011;8117;52.488;13.460;2022-11-15T10:09:41;8.67;;;4.30;;
16025;SDS011;8117;52.488;13.460;2022-11-15T10:12:11;11.10;;;4.57;;
16025;SDS011;8117;52.488;13.460;2022-11-15T10:14:58;15.67;;;4.93;;
16025;SDS011;8117;52.488;13.460;2022-11-15T10:17:41;9.90;;;4.17;;
16025;SDS011;8117;52.488;13.460;2022-11-15T10:20:24;6.77;;;4.07;;
16025;SDS011;8117;52.488;13.460;2022-11-15T10:23:04;6.67;;;4.40;;
16025;SDS011;8117;52.488;13.460;2022-11-15T10:25:33;10.27;;;3.80;;
16025;SDS011;8117;52.488;13.460;2022-11-15T10:28:01;6.73;;;3.57;;
16025;SDS011;8117;52.488;13.460;2022-11-15T10:30:36;7.13;;;3.80;;
16025;SDS011;8117;52.488;13.460;2022-11-15T10:33:13;12.57;;;5.07;;
16025;SDS011;8117;52.488;13.460;2022-11-15T10:38:57;8.73;;;3.87;;
16025;SDS011;8117;52.488;13.460;2022-11-15T10:47:20;10.50;;;3.50;;
16025;SDS011;8117;52.488;13.460;2022-11-15T10:49:55;7.80;;;4.00;;
16025;SDS011;8117;52.488;13.460;2022-11-15T10:52:27;6.83;;;4.57;;
16025;SDS011;8117;52.488;13.460;2022-11-15T10:54:56;6.73;;;3.90;;
16025;SDS011;8117;52.488;13.460;2022-11-15T10:57:29;9.17;;;4.10;;
16025;SDS011;8117;52.488;13.460;2022-11-15T11:00:32;5.93;;;3.67;;
16025;SDS011;8117;52.488;13.460;2022-11-15T11:03:20;6.73;;;3.93;;
16025;SDS011;8117;52.488;13.460;2022-11-15T11:06:05;6.03;;;3.90;;
16025;SDS011;8117;52.488;13.460;2022-11-15T11:08:37;7.50;;;3.20;;
16025;SDS011;8117;52.488;13.460;2022-11-15T11:11:05;6.70;;;4.50;;
16025;SDS011;8117;52.488;13.460;2022-11-15T11:13:33;4.83;;;3.53;;
16025;SDS011;8117;52.488;13.460;2022-11-15T11:16:09;10.80;;;4.60;;
16025;SDS011;8117;52.488;13.460;2022-11-15T11:18:47;8.10;;;4.03;;
16025;SDS011;8117;52.488;13.460;2022-11-15T11:21:19;8.10;;;2.90;;
16025;SDS011;8117;52.488;13.460;2022-11-15T11:23:51;7.27;;;3.10;;
16025;SDS011;8117;52.488;13.460;2022-11-15T11:26:26;5.57;;;3.77;;
16025;SDS011;8117;52.488;13.460;2022-11-15T11:29:00;6.30;;;3.67;;
16025;SDS011;8117;52.488;13.460;2022-11-15T11:31:32;6.03;;;3.57;;
16025;SDS011;8117;52.488;13.460;2022-11-15T11:34:08;10.37;;;3.33;;
16025;SDS011;8117;52.488;13.460;2022-11-15T11:36:42;5.13;;;3.50;;
16025;SDS011;8117;52.488;13.460;2022-11-15T11:39:17;8.37;;;3.60;;
16025;SDS011;8117;52.488;13.460;2022-11-15T11:41:51;8.50;;;3.37;;
16025;SDS011;8117;52.488;13.460;2022-11-15T11:44:32;6.23;;;4.30;;
16025;SDS011;8117;52.488;13.460;2022-11-15T11:47:01;8.90;;;3.03;;
16025;SDS011;8117;52.488;13.460;2022-11-15T11:49:32;6.77;;;3.83;;
16025;SDS011;8117;52.488;13.460;2022-11-15T11:52:05;7.53;;;2.97;;
16025;SDS011;8117;52.488;13.460;2022-11-15T11:54:38;7.30;;;3.13;;
16025;SDS011;8117;52.488;13.460;2022-11-15T11:57:11;7.60;;;3.10;;
16025;SDS011;8117;52.488;13.460;2022-11-15T11:59:47;6.23;;;3.93;;
16025;SDS011;8117;52.488;13.460;2022-11-15T12:02:18;6.40;;;3.50;;
16025;SDS011;8117;52.488;13.460;2022-11-15T12:05:01;9.17;;;3.33;;
16025;SDS011;8117;52.488;13.460;2022-11-15T12:07:34;6.47;;;3.07;;
16025;SDS011;8117;52.488;13.460;2022-11-15T12:10:04;11.73;;;2.93;;
16025;SDS011;8117;52.488;13.460;2022-11-15T12:12:41;8.13;;;3.47;;
16025;SDS011;8117;52.488;13.460;2022-11-15T12:15:12;5.47;;;3.43;;
16025;SDS011;8117;52.488;13.460;2022-11-15T12:17:41;7.80;;;3.37;;
16025;SDS011;8117;52.488;13.460;2022-11-15T12:20:15;4.90;;;3.20;;
16025;SDS011;8117;52.488;13.460;2022-11-15T12:22:52;5.17;;;3.70;;
16025;SDS011;8117;52.488;13.460;2022-11-15T12:25:21;6.00;;;3.17;;
16025;SDS011;8117;52.488;13.460;2022-11-15T12:27:51;6.23;;;3.20;;
16025;SDS011;8117;52.488;13.460;2022-11-15T12:30:20;9.57;;;4.03;;
16025;SDS011;8117;52.488;13.460;2022-11-15T12:32:52;7.27;;;3.70;;
16025;SDS011;8117;52.488;13.460;2022-11-15T12:35:34;7.10;;;3.37;;
16025;SDS011;8117;52.488;13.460;2022-11-15T12:38:02;5.23;;;2.90;;
16025;SDS011;8117;52.488;13.460;2022-11-15T12:40:36;7.90;;;3.10;;
16025;SDS011;8117;52.488;13.460;2022-11-15T12:43:04;9.47;;;3.90;;
16025;SDS011;8117;52.488;13.460;2022-11-15T12:46:00;4.97;;;3.83;;
16025;SDS011;8117;52.488;13.460;2022-11-15T12:57:26;7.37;;;3.80;;
16025;SDS011;8117;52.488;13.460;2022-11-15T12:59:57;8.00;;;3.77;;
16025;SDS011;8117;52.488;13.460;2022-11-15T13:02:27;8.30;;;3.67;;
16025;SDS011;8117;52.488;13.460;2022-11-15T13:07:58;4.97;;;2.87;;
16025;SDS011;8117;52.488;13.460;2022-11-15T13:10:30;4.30;;;2.80;;
16025;SDS011;8117;52.488;13.460;2022-11-15T13:12:58;4.40;;;3.60;;
16025;SDS011;8117;52.488;13.460;2022-11-15T13:18:28;5.20;;;3.63;;
16025;SDS011;8117;52.488;13.460;2022-11-15T13:20:57;10.20;;;3.40;;
16025;SDS011;8117;52.488;13.460;2022-11-15T13:23:24;5.83;;;3.37;;
16025;SDS011;8117;52.488;13.460;2022-11-15T13:25:57;3.43;;;2.40;;
16025;SDS011;8117;52.488;13.460;2022-11-15T13:28:41;4.57;;;3.00;;
16025;SDS011;8117;52.488;13.460;2022-11-15T13:31:21;6.13;;;2.93;;
16025;SDS011;8117;52.488;13.460;2022-11-15T13:33:50;5.97;;;3.03;;
16025;SDS011;8117;52.488;13.460;2022-11-15T13:36:18;6.57;;;3.03;;
16025;SDS011;8117;52.488;13.460;2022-11-15T13:38:54;6.80;;;2.90;;
16025;SDS011;8117;52.488;13.460;2022-11-15T13:41:24;5.70;;;2.63;;
16025;SDS011;8117;52.488;13.460;2022-11-15T13:43:52;4.40;;;2.57;;
16025;SDS011;8117;52.488;13.460;2022-11-15T13:46:20;7.30;;;2.97;;
16025;SDS011;8117;52.488;13.460;2022-11-15T13:48:51;5.23;;;2.60;;
16025;SDS011;8117;52.488;13.460;2022-11-15T13:51:23;6.90;;;2.20;;
16025;SDS011;8117;52.488;13.460;2022-11-15T13:53:53;4.07;;;2.53;;
16025;SDS011;8117;52.488;13.460;2022-11-15T13:56:21;4.70;;;3.30;;
16025;SDS011;8117;52.488;13.460;2022-11-15T13:58:51;6.53;;;3.43;;
16025;SDS011;8117;52.488;13.460;2022-11-15T14:01:19;5.27;;;3.33;;
16025;SDS011;8117;52.488;13.460;2022-11-15T14:03:47;6.33;;;3.30;;
16025;SDS011;8117;52.488;13.460;2022-11-15T14:06:19;4.73;;;2.87;;
16025;SDS011;8117;52.488;13.460;2022-11-15T14:09:04;5.83;;;2.63;;
16025;SDS011;8117;52.488;13.460;2022-11-15T14:11:53;6.73;;;2.80;;
16025;SDS011;8117;52.488;13.460;2022-11-15T14:14:21;4.13;;;2.20;;
16025;SDS011;8117;52.488;13.460;2022-11-15T14:16:48;5.13;;;3.13;;
16025;SDS011;8117;52.488;13.460;2022-11-15T14:19:40;3.97;;;2.93;;
16025;SDS011;8117;52.488;13.460;2022-11-15T14:22:08;5.67;;;3.43;;
16025;SDS011;8117;52.488;13.460;2022-11-15T14:24:39;4.67;;;3.37;;
16025;SDS011;8117;52.488;13.460;2022-11-15T14:27:20;8.70;;;3.43;;
16025;SDS011;8117;52.488;13.460;2022-11-15T14:29:50;4.93;;;3.50;;
16025;SDS011;8117;52.488;13.460;2022-11-15T14:32:17;4.83;;;2.87;;
16025;SDS011;8117;52.488;13.460;2022-11-15T14:34:46;4.33;;;2.53;;
16025;SDS011;8117;52.488;13.460;2022-11-15T14:37:18;5.13;;;2.97;;
16025;SDS011;8117;52.488;13.460;2022-11-15T14:39:49;5.37;;;3.80;;
16025;SDS011;8117;52.488;13.460;2022-11-15T14:42:16;5.53;;;2.80;;
16025;SDS011;8117;52.488;13.460;2022-11-15T14:44:44;4.10;;;2.67;;
16025;SDS011;8117;52.488;13.460;2022-11-15T14:47:11;4.33;;;3.03;;
16025;SDS011;8117;52.488;13.460;2022-11-15T14:49:38;6.23;;;3.33;;
16025;SDS011;8117;52.488;13.460;2022-11-15T14:52:07;5.50;;;3.73;;
16025;SDS011;8117;52.488;13.460;2022-11-15T14:54:49;4.40;;;2.53;;
16025;SDS011;8117;52.488;13.460;2022-11-15T14:57:15;5.23;;;3.77;;
16025;SDS011;8117;52.488;13.460;2022-11-15T14:59:43;5.93;;;3.70;;
16025;SDS011;8117;52.488;13.460;2022-11-15T15:02:13;6.33;;;2.83;;
16025;SDS011;8117;52.488;13.460;2022-11-15T15:04:42;5.33;;;3.20;;
16025;SDS011;8117;52.488;13.460;2022-11-15T15:10:00;6.33;;;2.67;;
16025;SDS011;8117;52.488;13.460;2022-11-15T15:12:27;7.37;;;3.00;;
16025;SDS011;8117;52.488;13.460;2022-11-15T15:15:00;4.33;;;2.90;;
16025;SDS011;8117;52.488;13.460;2022-11-15T15:17:27;7.23;;;3.40;;
16025;SDS011;8117;52.488;13.460;2022-11-15T15:19:53;6.07;;;2.70;;
16025;SDS011;8117;52.488;13.460;2022-11-15T15:22:21;7.10;;;3.57;;
16025;SDS011;8117;52.488;13.460;2022-11-15T15:25:19;5.50;;;3.30;;
16025;SDS011;8117;52.488;13.460;2022-11-15T15:27:53;7.47;;;3.60;;
16025;SDS011;8117;52.488;13.460;2022-11-15T15:30:21;6.93;;;3.40;;
16025;SDS011;8117;52.488;13.460;2022-11-15T15:32:48;8.20;;;3.57;;
16025;SDS011;8117;52.488;13.460;2022-11-15T15:35:16;6.33;;;4.70;;
16025;SDS011;8117;52.488;13.460;2022-11-15T15:37:44;5.20;;;3.43;;
16025;SDS011;8117;52.488;13.460;2022-11-15T15:40:13;5.93;;;3.33;;
16025;SDS011;8117;52.488;13.460;2022-11-15T15:42:41;5.67;;;3.80;;
16025;SDS011;8117;52.488;13.460;2022-11-15T15:45:11;7.90;;;4.77;;
16025;SDS011;8117;52.488;13.460;2022-11-15T15:47:39;10.37;;;5.70;;